クライストチャーチ の空港の天気 - METARとTAF

クライストチャーチ国際空港 ( NZCH / CHC ) - ニュージーランド クライストチャーチ
飛行場実況気象(Metar)
観測時間04/27 18:30 NZST (04/27 06:30 UTC)
風向・風速東北東 3m/s
視程10km以上
天気現象
なし
気温13℃
湿度82%
気圧1010hPa
METARNZCH 270630Z AUTO 06005KT 030V100 9999 NCD 13/10 Q1010 NOSIG
過去の天気等 Google飛行場航空写真 Wunderground天気予報

過去48時間のMETAR

飛行場予報(TAF)
発表時間: 4/27 17:01 NZST (4/27 05:01 UTC)
予報対象時間: 27日18時 NZST ~ 28日18時 NZST
風向・風速北東 3m/s
視程10km以上
なし
28日4時 NZST ~ 28日6時 NZST に徐々に
風向・風速東北東 8m/s
28日8時 NZST ~ 28日10時 NZST に徐々に
風向・風速北東 9m/s 瞬間風速 15m/s
28日13時 NZST ~ 28日15時 NZST に徐々に
風向・風速北西 5m/s
TAF NZCH 270501Z 2706/2806 04005KT CAVOK
BECMG 2716/2718 06015KT
BECMG 2720/2722 04018G30KT
BECMG 2801/2803 31010KT